Time;durP1;ratioP1;P1;durP2;ratioP2;P2;SDS_P1;SDS_P2;PMS_P1;PMS_P2;Temp;Humidity;BMP_temperature;BMP_pressure;BME280_temperature;BME280_humidity;BME280_pressure;Samples;Min_cycle;Max_cycle;Signal;HPM_P1;HPM_P2
2024/03/20 00:00:01;;;;;;;;;;;;;;;20.48;35.97;101136.09;102620;1296;62170;-79
2024/03/20 00:02:27;;;;;;;;;;;;;;;20.48;36.10;101135.91;102654;1291;62242;-79
2024/03/20 00:04:52;;;;;;;;;;;;;;;20.49;36.06;101141.21;102624;1297;62166;-80
2024/03/20 00:07:18;;;;;;;;;;;;;;;20.48;36.06;101141.77;102654;1292;62225;-79
2024/03/20 00:09:43;;;;;;;;;;;;;;;20.49;36.03;101139.95;102764;1297;62142;-79
2024/03/20 00:12:09;;;;;;;;;;;;;;;20.49;36.13;101136.73;102652;1291;62201;-78
2024/03/20 00:14:35;;;;;;;;;;;;;;;20.49;36.03;101134.39;102669;1292;63453;-79
2024/03/20 00:17:02;;;;;;;;;;;;;;;20.49;36.05;101131.17;102672;1298;62184;-79
2024/03/20 00:19:28;;;;;;;;;;;;;;;20.49;36.06;101124.92;102706;1298;62206;-81
2024/03/20 00:21:54;;;;;;;;;;;;;;;20.49;36.03;101124.02;102710;1292;62189;-81
2024/03/20 00:24:20;;;;;;;;;;;;;;;20.49;35.92;101122.77;102677;1297;63468;-78
2024/03/20 00:26:46;;;;;;;;;;;;;;;20.50;36.14;101120.24;102695;1297;62669;-81
2024/03/20 00:29:12;;;;;;;;;;;;;;;20.50;36.05;101120.24;102678;1297;62236;-79
2024/03/20 00:31:37;;;;;;;;;;;;;;;20.50;36.08;101122.92;102711;1292;62194;-81
2024/03/20 00:34:03;;;;;;;;;;;;;;;20.50;36.11;101121.83;102681;1296;62208;-81
2024/03/20 00:36:30;;;;;;;;;;;;;;;20.50;36.02;101121.08;102632;1297;63549;-81
2024/03/20 00:38:56;;;;;;;;;;;;;;;20.50;36.18;101118.77;102659;1291;62194;-79
2024/03/20 00:41:21;;;;;;;;;;;;;;;20.51;36.17;101115.88;102700;1292;62296;-79
2024/03/20 00:43:47;;;;;;;;;;;;;;;20.51;36.12;101118.38;102699;1297;62232;-79
2024/03/20 00:46:12;;;;;;;;;;;;;;;20.51;36.14;101118.38;102626;1298;63453;-79
2024/03/20 00:48:38;;;;;;;;;;;;;;;20.51;36.07;101118.37;102682;1292;62175;-80
2024/03/20 00:51:04;;;;;;;;;;;;;;;20.51;36.07;101119.45;102683;1292;72365;-80
2024/03/20 00:53:30;;;;;;;;;;;;;;;20.51;36.18;101118.37;102691;1297;63360;-79
2024/03/20 00:55:55;;;;;;;;;;;;;;;20.51;36.10;101119.06;102738;1298;62204;-83
2024/03/20 00:58:21;;;;;;;;;;;;;;;20.51;36.10;101115.86;102717;1295;62207;-79
2024/03/20 01:00:46;;;;;;;;;;;;;;;20.51;36.10;101111.58;102746;1297;62289;-81
2024/03/20 01:03:13;;;;;;;;;;;;;;;20.51;36.06;101113.17;102656;1292;73586;-80
2024/03/20 01:05:39;;;;;;;;;;;;;;;20.51;36.17;101107.97;102737;1292;76385;-80
2024/03/20 01:08:05;;;;;;;;;;;;;;;20.52;36.12;101108.65;102671;1295;62193;-79
2024/03/20 01:10:31;;;;;;;;;;;;;;;20.52;36.05;101106.87;102723;1296;63671;-79
2024/03/20 01:12:56;;;;;;;;;;;;;;;20.52;36.25;101116.86;102736;1297;63464;-78
2024/03/20 01:15:22;;;;;;;;;;;;;;;20.52;36.12;101119.73;102604;1298;62118;-80
2024/03/20 01:17:47;;;;;;;;;;;;;;;20.53;36.17;101122.02;102724;1298;62209;-79
2024/03/20 01:20:13;;;;;;;;;;;;;;;20.52;36.16;101113.45;102612;1296;62284;-79
2024/03/20 01:22:39;;;;;;;;;;;;;;;20.52;36.09;101105.22;102629;1299;62185;-78
2024/03/20 01:25:04;;;;;;;;;;;;;;;20.53;36.15;101106.61;102593;1298;62320;-79
2024/03/20 01:27:30;;;;;;;;;;;;;;;20.53;36.22;101101.98;102588;1296;62888;-79
2024/03/20 01:29:56;;;;;;;;;;;;;;;20.53;36.20;101104.11;102719;1296;62111;-81
2024/03/20 01:32:21;;;;;;;;;;;;;;;20.54;36.19;101105.50;102612;1298;62227;-79
2024/03/20 01:34:47;;;;;;;;;;;;;;;20.53;36.12;101107.66;102699;1297;62375;-83
2024/03/20 01:37:13;;;;;;;;;;;;;;;20.53;36.25;101106.77;102702;1298;62290;-78
2024/03/20 01:39:40;;;;;;;;;;;;;;;20.54;36.18;101106.20;102670;1299;62267;-80
2024/03/20 01:42:06;;;;;;;;;;;;;;;20.53;36.21;101106.77;102679;1296;62217;-79
2024/03/20 01:44:32;;;;;;;;;;;;;;;20.53;36.24;101106.95;102581;1297;63470;-79
2024/03/20 01:46:57;;;;;;;;;;;;;;;20.54;36.32;101100.48;102712;1298;62191;-79
2024/03/20 01:49:23;;;;;;;;;;;;;;;20.54;36.13;101102.09;102745;1295;63475;-78
2024/03/20 01:51:48;;;;;;;;;;;;;;;20.54;36.21;101103.16;102650;1293;74300;-80
2024/03/20 01:54:14;;;;;;;;;;;;;;;20.54;36.19;101100.48;102735;1294;62504;-79
2024/03/20 01:56:40;;;;;;;;;;;;;;;20.54;36.22;101095.28;102662;1293;63314;-79
2024/03/20 01:59:05;;;;;;;;;;;;;;;20.54;36.26;101095.83;102655;1305;62221;-79
2024/03/20 02:01:31;;;;;;;;;;;;;;;20.54;36.23;101094.54;102776;1295;62193;-79
2024/03/20 02:03:57;;;;;;;;;;;;;;;20.54;36.26;101097.40;102674;1305;75080;-79
2024/03/20 02:06:24;;;;;;;;;;;;;;;20.54;36.23;101096.33;102748;1293;63323;-80
2024/03/20 02:08:51;;;;;;;;;;;;;;;20.54;36.31;101095.45;102683;1296;62242;-79
2024/03/20 02:11:16;;;;;;;;;;;;;;;20.54;36.26;101097.02;102757;1298;62195;-80
2024/03/20 02:13:46;;;;;;;;;;;;;;;20.55;36.36;101098.78;102680;1297;63220;-80
2024/03/20 02:16:15;;;;;;;;;;;;;;;20.55;36.22;101097.02;102707;1295;62090;-79
2024/03/20 02:18:41;;;;;;;;;;;;;;;20.55;36.29;101097.55;102708;1292;62402;-79
2024/03/20 02:21:09;;;;;;;;;;;;;;;20.56;36.30;101104.30;102649;1295;63188;-82
2024/03/20 02:23:35;;;;;;;;;;;;;;;20.56;36.21;101108.56;102070;1295;890391;-80
2024/03/20 02:26:01;;;;;;;;;;;;;;;20.56;36.30;101112.68;102682;1295;62213;-79
2024/03/20 02:28:26;;;;;;;;;;;;;;;20.56;36.36;101115.91;102711;1292;63310;-81
2024/03/20 02:30:52;;;;;;;;;;;;;;;20.57;36.27;101124.98;102653;1292;62270;-78
2024/03/20 02:33:17;;;;;;;;;;;;;;;20.56;36.34;101126.41;102711;1305;62129;-79
2024/03/20 02:35:43;;;;;;;;;;;;;;;20.56;36.30;101131.79;102701;1296;75268;-79
2024/03/20 02:38:08;;;;;;;;;;;;;;;20.56;36.27;101141.24;102623;1296;62303;-80
2024/03/20 02:40:35;;;;;;;;;;;;;;;20.57;36.30;101156.08;102631;1296;62605;-79
2024/03/20 02:43:00;;;;;;;;;;;;;;;20.56;36.22;101156.45;102687;1298;63188;-79
2024/03/20 02:45:26;;;;;;;;;;;;;;;20.57;36.31;101159.63;102701;1295;62202;-79
2024/03/20 02:47:51;;;;;;;;;;;;;;;20.57;36.22;101159.83;102755;1292;62265;-79
2024/03/20 02:50:17;;;;;;;;;;;;;;;20.57;36.36;101158.73;102639;1293;62081;-80
2024/03/20 02:52:43;;;;;;;;;;;;;;;20.57;36.22;101166.05;102648;1298;62244;-79
2024/03/20 02:55:09;;;;;;;;;;;;;;;20.57;36.27;101165.00;102606;1293;63468;-79
2024/03/20 02:57:34;;;;;;;;;;;;;;;20.57;36.17;101162.68;102608;1293;63348;-79
2024/03/20 03:00:00;;;;;;;;;;;;;;;20.57;36.29;101162.33;102612;1296;62127;-80
2024/03/20 03:02:26;;;;;;;;;;;;;;;20.57;36.38;101160.16;102705;1295;62203;-79
2024/03/20 03:04:51;;;;;;;;;;;;;;;20.57;36.38;101172.34;102682;1292;62194;-79
2024/03/20 03:07:18;;;;;;;;;;;;;;;20.57;36.23;101173.58;102712;1295;62290;-80
2024/03/20 03:09:45;;;;;;;;;;;;;;;20.57;36.20;101177.33;102684;1297;62961;-79
2024/03/20 03:12:10;;;;;;;;;;;;;;;20.57;36.22;101183.91;102598;1304;63382;-79
2024/03/20 03:14:37;;;;;;;;;;;;;;;20.57;36.26;101188.75;102611;1292;62295;-78
2024/03/20 03:17:02;;;;;;;;;;;;;;;20.57;36.20;101190.02;102720;1291;63447;-79
2024/03/20 03:19:28;;;;;;;;;;;;;;;20.57;36.18;101191.80;102693;1291;62129;-78
2024/03/20 03:21:53;;;;;;;;;;;;;;;20.57;36.16;101197.34;102687;1296;62195;-79
2024/03/20 03:24:19;;;;;;;;;;;;;;;20.58;36.18;101192.30;102683;1296;62211;-81
2024/03/20 03:26:44;;;;;;;;;;;;;;;20.57;36.19;101190.53;102693;1298;62307;-79
2024/03/20 03:29:10;;;;;;;;;;;;;;;20.57;36.30;101193.41;102704;1292;63548;-80
2024/03/20 03:31:36;;;;;;;;;;;;;;;20.58;36.32;101198.55;102649;1295;63408;-81
2024/03/20 03:34:02;;;;;;;;;;;;;;;20.58;36.39;101196.76;102760;1291;62283;-79
2024/03/20 03:36:30;;;;;;;;;;;;;;;20.57;36.13;101191.60;102627;1297;62241;-81
2024/03/20 03:38:56;;;;;;;;;;;;;;;20.58;36.26;101193.20;102645;1296;63404;-79
2024/03/20 03:41:21;;;;;;;;;;;;;;;20.58;36.25;101194.80;102713;1298;63596;-80
2024/03/20 03:43:47;;;;;;;;;;;;;;;20.58;36.31;101189.79;102708;1291;62133;-79
2024/03/20 03:46:12;;;;;;;;;;;;;;;20.58;36.04;101184.62;102741;1298;62125;-79
2024/03/20 03:48:38;;;;;;;;;;;;;;;20.58;36.18;101182.63;102667;1293;62213;-79
2024/03/20 03:51:05;;;;;;;;;;;;;;;20.58;36.26;101186.94;102655;1293;63475;-79
2024/03/20 03:53:31;;;;;;;;;;;;;;;20.58;36.20;101182.80;102657;1297;63251;-79
2024/03/20 03:55:56;;;;;;;;;;;;;;;20.58;36.17;101183.84;102670;1293;62838;-78
2024/03/20 03:58:22;;;;;;;;;;;;;;;20.58;36.22;101187.11;102632;1298;62225;-79
2024/03/20 04:00:48;;;;;;;;;;;;;;;20.58;36.18;101190.11;102782;1292;62207;-81
2024/03/20 04:03:13;;;;;;;;;;;;;;;20.58;36.23;101192.81;102581;1291;73375;-80
2024/03/20 04:05:39;;;;;;;;;;;;;;;20.59;36.20;101192.08;102566;1297;63612;-81
2024/03/20 04:08:05;;;;;;;;;;;;;;;20.59;36.32;101191.90;102452;1300;63439;-79
2024/03/20 04:10:30;;;;;;;;;;;;;;;20.58;36.23;101192.96;102536;1295;62214;-80
2024/03/20 04:12:56;;;;;;;;;;;;;;;20.58;36.13;101195.85;102583;1297;62861;-80
2024/03/20 04:15:23;;;;;;;;;;;;;;;20.59;36.22;101205.85;102451;1295;62227;-79
2024/03/20 04:17:49;;;;;;;;;;;;;;;20.59;36.16;101211.20;102628;1297;63366;-79
2024/03/20 04:20:14;;;;;;;;;;;;;;;20.59;36.25;101213.16;102441;1297;62072;-79
2024/03/20 04:22:41;;;;;;;;;;;;;;;20.58;36.25;101216.42;102608;1295;62353;-79
2024/03/20 04:25:07;;;;;;;;;;;;;;;20.57;36.18;101219.73;102464;1295;63478;-78
2024/03/20 04:27:35;;;;;;;;;;;;;;;20.53;36.18;101216.92;102375;1297;62248;-80
2024/03/20 04:30:01;;;;;;;;;;;;;;;20.50;36.22;101220.35;102502;1296;62382;-81
2024/03/20 04:32:27;;;;;;;;;;;;;;;20.46;36.28;101225.45;102646;1295;63412;-80
2024/03/20 04:34:52;;;;;;;;;;;;;;;20.41;36.39;101235.39;102447;1300;63473;-79
2024/03/20 04:37:18;;;;;;;;;;;;;;;20.37;36.36;101239.56;102585;1297;62212;-80
2024/03/20 04:39:43;;;;;;;;;;;;;;;20.33;36.45;101238.17;102674;1297;62186;-79
2024/03/20 04:42:09;;;;;;;;;;;;;;;20.29;36.60;101241.81;102597;1298;62393;-78
2024/03/20 04:44:35;;;;;;;;;;;;;;;20.26;36.73;101244.48;102224;1300;62616;-80
2024/03/20 04:47:00;;;;;;;;;;;;;;;20.25;36.81;101246.35;102500;1300;62270;-81
2024/03/20 04:49:26;;;;;;;;;;;;;;;20.23;36.78;101256.27;102533;1300;63330;-81
2024/03/20 04:51:51;;;;;;;;;;;;;;;20.23;36.92;101261.13;102221;1301;62294;-79
2024/03/20 04:54:17;;;;;;;;;;;;;;;20.21;36.80;101256.41;102562;1295;62329;-81
2024/03/20 04:56:43;;;;;;;;;;;;;;;20.21;36.87;101252.84;102316;1294;62198;-80
2024/03/20 04:59:08;;;;;;;;;;;;;;;20.20;36.76;101258.45;102452;1297;63352;-80
2024/03/20 05:01:35;;;;;;;;;;;;;;;20.19;36.83;101262.27;102498;1300;63464;-79
2024/03/20 05:04:02;;;;;;;;;;;;;;;20.17;36.94;101268.11;102476;1299;63321;-80
2024/03/20 05:06:27;;;;;;;;;;;;;;;20.15;36.79;101278.06;102408;1297;63324;-81
2024/03/20 05:08:53;;;;;;;;;;;;;;;20.12;36.65;101282.69;102347;1298;62401;-80
2024/03/20 05:11:19;;;;;;;;;;;;;;;20.10;36.55;101287.81;102299;1300;62256;-80
2024/03/20 05:13:45;;;;;;;;;;;;;;;20.07;36.58;101287.27;102517;1292;62166;-81
2024/03/20 05:16:10;;;;;;;;;;;;;;;20.04;36.46;101281.58;102715;1291;62140;-81
2024/03/20 05:18:36;;;;;;;;;;;;;;;20.00;36.29;101278.58;103125;1294;62175;-78
2024/03/20 05:21:02;;;;;;;;;;;;;;;19.96;36.23;101282.37;103092;1294;62339;-78
2024/03/20 05:23:27;;;;;;;;;;;;;;;19.92;36.09;101286.16;103051;1297;62174;-80
2024/03/20 05:25:56;;;;;;;;;;;;;;;19.88;36.15;101280.16;102727;1295;63246;-80
2024/03/20 05:28:23;;;;;;;;;;;;;;;19.84;36.03;101288.08;102455;1298;62201;-79
2024/03/20 05:30:49;;;;;;;;;;;;;;;19.81;36.09;101292.19;102774;1295;62233;-80
2024/03/20 05:33:15;;;;;;;;;;;;;;;19.77;36.04;101300.76;102673;1295;62213;-79
2024/03/20 05:35:41;;;;;;;;;;;;;;;19.75;35.93;101297.16;102616;1294;62219;-80
2024/03/20 05:38:06;;;;;;;;;;;;;;;19.72;35.95;101299.98;102610;1297;63381;-81
2024/03/20 05:40:32;;;;;;;;;;;;;;;19.70;35.73;101302.45;102732;1295;62150;-79
2024/03/20 05:42:57;;;;;;;;;;;;;;;19.68;35.70;101310.91;102696;1294;71325;-81
2024/03/20 05:45:23;;;;;;;;;;;;;;;19.69;35.72;101318.37;102898;1291;63403;-80
2024/03/20 05:47:49;;;;;;;;;;;;;;;19.70;35.80;101310.09;103079;1291;62118;-79
2024/03/20 05:50:15;;;;;;;;;;;;;;;19.71;35.66;101310.06;103207;1296;62125;-80
2024/03/20 05:52:41;;;;;;;;;;;;;;;19.71;35.68;101306.67;103418;1291;62112;-79
2024/03/20 05:55:08;;;;;;;;;;;;;;;19.70;35.47;101309.92;103442;1295;63633;-80
2024/03/20 05:57:33;;;;;;;;;;;;;;;19.69;35.48;101304.80;103849;1291;62104;-82
2024/03/20 05:59:59;;;;;;;;;;;;;;;19.68;35.48;101308.80;103659;1295;62218;-82
2024/03/20 06:02:24;;;;;;;;;;;;;;;19.65;35.38;101305.21;104140;1297;64611;-81
2024/03/20 06:04:50;;;;;;;;;;;;;;;19.62;35.29;101316.80;104396;1291;60554;-82
2024/03/20 06:07:15;;;;;;;;;;;;;;;19.60;35.33;101319.95;104626;1291;62122;-80
2024/03/20 06:09:41;;;;;;;;;;;;;;;19.59;35.39;101321.98;104467;1291;62390;-80
2024/03/20 06:12:09;;;;;;;;;;;;;;;19.58;35.52;101326.48;105549;1291;62129;-78
2024/03/20 06:14:35;;;;;;;;;;;;;;;19.58;35.47;101329.18;104595;1297;60869;-80
2024/03/20 06:17:01;;;;;;;;;;;;;;;19.56;35.48;101327.11;104500;1295;62092;-79
2024/03/20 06:19:27;;;;;;;;;;;;;;;19.55;35.38;101330.05;104585;1291;62086;-79
2024/03/20 06:21:52;;;;;;;;;;;;;;;19.55;35.21;101332.94;104499;1291;62300;-80
2024/03/20 06:24:18;;;;;;;;;;;;;;;19.54;35.18;101335.48;104596;1292;62191;-79
2024/03/20 06:26:43;;;;;;;;;;;;;;;19.52;35.10;101338.77;104452;1291;62106;-80
2024/03/20 06:29:09;;;;;;;;;;;;;;;19.52;35.20;101340.42;104343;1297;60503;-80
2024/03/20 06:31:35;;;;;;;;;;;;;;;19.53;35.21;101345.54;104563;1296;62187;-80
2024/03/20 06:34:01;;;;;;;;;;;;;;;19.55;35.22;101349.87;104644;1291;63341;-81
2024/03/20 06:36:27;;;;;;;;;;;;;;;19.59;35.15;101351.80;104410;1291;62114;-81
2024/03/20 06:38:53;;;;;;;;;;;;;;;19.64;35.15;101351.02;104591;1291;72038;-80
2024/03/20 06:41:18;;;;;;;;;;;;;;;19.67;34.94;101354.36;104526;1291;62113;-82
2024/03/20 06:43:44;;;;;;;;;;;;;;;19.72;35.02;101359.28;104885;1291;59960;-81
2024/03/20 06:46:09;;;;;;;;;;;;;;;19.73;35.04;101358.70;104674;1292;62172;-81
2024/03/20 06:48:36;;;;;;;;;;;;;;;19.74;35.09;101358.45;104640;1291;62117;-81
2024/03/20 06:51:05;;;;;;;;;;;;;;;19.74;35.13;101356.86;104444;1291;72386;-80
2024/03/20 06:53:31;;;;;;;;;;;;;;;19.72;35.02;101353.77;103950;1294;75371;-79
2024/03/20 06:55:59;;;;;;;;;;;;;;;19.59;35.01;101357.52;103656;1294;62381;-79
2024/03/20 06:58:24;;;;;;;;;;;;;;;19.52;35.08;101359.67;104511;1294;62093;-79
2024/03/20 07:00:50;;;;;;;;;;;;;;;19.57;35.42;101365.45;103519;1294;62255;-80
2024/03/20 07:03:16;;;;;;;;;;;;;;;19.63;35.45;101368.73;103828;1294;62190;-80
2024/03/20 07:05:42;;;;;;;;;;;;;;;19.65;35.58;101370.73;104167;1295;62252;-81
2024/03/20 07:08:09;;;;;;;;;;;;;;;19.68;35.49;101370.91;104250;1294;62255;-80
2024/03/20 07:10:37;;;;;;;;;;;;;;;19.73;35.74;101374.24;104151;1298;62121;-80
2024/03/20 07:13:06;;;;;;;;;;;;;;;19.77;35.74;101376.48;104308;1294;62176;-81
2024/03/20 07:15:36;;;;;;;;;;;;;;;19.81;35.82;101374.33;104528;1294;62106;-81
2024/03/20 07:18:03;;;;;;;;;;;;;;;19.85;35.69;101375.73;104160;1295;60307;-81
2024/03/20 07:20:29;;;;;;;;;;;;;;;19.89;35.69;101376.56;104057;1294;63207;-81
2024/03/20 07:22:54;;;;;;;;;;;;;;;19.92;35.74;101379.76;104301;1295;60899;-81
2024/03/20 07:25:22;;;;;;;;;;;;;;;19.96;35.72;101381.02;104570;1291;62193;-80
2024/03/20 07:27:48;;;;;;;;;;;;;;;19.98;35.70;101381.77;104496;1291;63388;-79
2024/03/20 07:30:14;;;;;;;;;;;;;;;20.02;35.53;101385.33;104329;1294;62137;-80
2024/03/20 07:32:40;;;;;;;;;;;;;;;20.04;35.57;101382.15;104525;1291;62003;-80
2024/03/20 07:35:06;;;;;;;;;;;;;;;20.06;35.68;101384.35;104751;1291;62089;-82
2024/03/20 07:37:31;;;;;;;;;;;;;;;20.09;35.68;101384.73;104903;1291;62131;-81
2024/03/20 07:39:57;;;;;;;;;;;;;;;20.11;35.61;101384.42;104496;1291;62117;-81
2024/03/20 07:42:23;;;;;;;;;;;;;;;20.13;35.63;101386.27;104756;1291;62230;-81
2024/03/20 07:44:49;;;;;;;;;;;;;;;20.16;35.65;101393.46;104723;1291;62040;-81
2024/03/20 07:47:15;;;;;;;;;;;;;;;20.16;35.56;101394.86;104412;1291;62181;-79
2024/03/20 07:49:40;;;;;;;;;;;;;;;20.15;35.75;101397.96;104394;1291;62040;-79
2024/03/20 07:52:06;;;;;;;;;;;;;;;20.13;35.68;101401.31;104628;1292;62617;-79
2024/03/20 07:54:32;;;;;;;;;;;;;;;20.09;35.59;101404.05;104998;1291;62795;-79
2024/03/20 07:56:57;;;;;;;;;;;;;;;20.02;35.61;101405.15;104908;1291;61818;-82
2024/03/20 07:59:23;;;;;;;;;;;;;;;19.98;35.81;101405.94;104861;1291;62051;-80
2024/03/20 08:01:50;;;;;;;;;;;;;;;19.96;35.88;101405.15;104699;1291;62131;-81
2024/03/20 08:04:15;;;;;;;;;;;;;;;19.94;36.01;101405.21;104755;1291;60500;-80
2024/03/20 08:06:41;;;;;;;;;;;;;;;19.93;36.03;101408.88;104666;1291;62031;-80
2024/03/20 08:09:06;;;;;;;;;;;;;;;19.85;35.78;101405.21;104787;1291;62930;-80
2024/03/20 08:11:32;;;;;;;;;;;;;;;19.76;36.03;101403.86;104661;1291;64557;-78
2024/03/20 08:14:07;;;;;;;;;;;;;;;19.79;36.24;101403.58;104562;1292;60203;-78
2024/03/20 08:16:37;;;;;;;;;;;;;;;19.80;36.40;101399.92;104500;1291;75531;-79
2024/03/20 08:19:06;;;;;;;;;;;;;;;19.83;36.38;101399.61;104712;1291;62102;-78
2024/03/20 08:21:32;;;;;;;;;;;;;;;19.85;36.24;101402.52;104935;1291;60386;-80
2024/03/20 08:24:01;;;;;;;;;;;;;;;19.87;36.17;101405.46;104946;1291;60327;-80
2024/03/20 08:26:30;;;;;;;;;;;;;;;19.86;36.09;101404.22;104763;1292;74862;-80
2024/03/20 08:28:56;;;;;;;;;;;;;;;19.86;36.08;101401.73;104391;1291;61967;-80
2024/03/20 08:31:22;;;;;;;;;;;;;;;19.85;36.00;101412.55;104530;1291;62107;-80
2024/03/20 08:33:48;;;;;;;;;;;;;;;19.82;35.90;101409.69;104710;1291;62207;-81
2024/03/20 08:36:14;;;;;;;;;;;;;;;19.78;35.82;101411.10;104585;1291;62341;-80
2024/03/20 08:38:40;;;;;;;;;;;;;;;19.75;35.69;101417.17;104514;1291;62107;-80
2024/03/20 08:41:06;;;;;;;;;;;;;;;19.72;35.78;101416.93;104702;1291;62083;-80
2024/03/20 08:43:34;;;;;;;;;;;;;;;19.70;35.54;101412.25;104746;1291;62144;-80
2024/03/20 08:46:00;;;;;;;;;;;;;;;19.67;35.44;101410.64;104374;1294;62096;-82
2024/03/20 08:48:26;;;;;;;;;;;;;;;19.65;35.53;101408.09;104439;1291;60685;-81
2024/03/20 08:50:51;;;;;;;;;;;;;;;19.63;35.35;101414.79;104313;1294;63547;-80
2024/03/20 08:53:18;;;;;;;;;;;;;;;19.60;35.28;101419.73;104566;1291;62072;-80
2024/03/20 08:55:43;;;;;;;;;;;;;;;19.48;34.89;101420.80;104921;1292;61583;-81
2024/03/20 08:58:09;;;;;;;;;;;;;;;19.39;35.21;101421.98;104714;1291;75633;-79
2024/03/20 09:00:35;;;;;;;;;;;;;;;19.45;35.38;101423.09;104939;1292;63338;-80
2024/03/20 09:03:01;;;;;;;;;;;;;;;19.53;35.68;101421.95;104696;1291;64521;-81
2024/03/20 09:05:26;;;;;;;;;;;;;;;19.55;35.41;101423.08;105898;1291;59972;-82
2024/03/20 09:07:52;;;;;;;;;;;;;;;19.58;35.56;101422.17;105885;1291;61075;-81
2024/03/20 09:10:18;;;;;;;;;;;;;;;19.63;35.66;101412.67;105160;1291;62195;-79
2024/03/20 09:12:44;;;;;;;;;;;;;;;19.65;35.75;101407.37;105908;1291;61322;-81
2024/03/20 09:15:09;;;;;;;;;;;;;;;19.67;35.71;101409.24;105897;1291;60119;-80
2024/03/20 09:17:35;;;;;;;;;;;;;;;19.67;35.69;101405.27;105853;1294;60813;-80
2024/03/20 09:20:04;;;;;;;;;;;;;;;19.66;35.46;101403.69;105906;1291;59922;-80
2024/03/20 09:22:30;;;;;;;;;;;;;;;19.66;35.36;101405.17;105775;1291;60139;-82
2024/03/20 09:24:56;;;;;;;;;;;;;;;19.65;35.58;101401.83;105974;1291;60340;-80
2024/03/20 09:27:22;;;;;;;;;;;;;;;19.65;35.56;101401.67;105874;1292;60078;-81
2024/03/20 09:29:47;;;;;;;;;;;;;;;19.64;35.36;101402.41;105882;1291;60189;-79
2024/03/20 09:32:13;;;;;;;;;;;;;;;19.64;35.24;101400.61;105962;1291;60921;-81
2024/03/20 09:34:38;;;;;;;;;;;;;;;19.64;35.26;101402.58;105976;1291;60197;-81
2024/03/20 09:37:05;;;;;;;;;;;;;;;19.65;35.15;101402.55;105866;1291;60173;-81
2024/03/20 09:39:31;;;;;;;;;;;;;;;19.65;35.17;101401.66;105963;1291;72526;-81
2024/03/20 09:41:56;;;;;;;;;;;;;;;19.65;35.25;101400.74;105897;1291;62195;-80
2024/03/20 09:44:22;;;;;;;;;;;;;;;19.65;35.17;101402.54;104404;1291;62117;-80
2024/03/20 09:46:49;;;;;;;;;;;;;;;19.65;35.14;101397.36;104714;1294;62139;-80
2024/03/20 09:49:15;;;;;;;;;;;;;;;19.65;35.09;101395.42;104251;1292;64619;-80
2024/03/20 09:51:40;;;;;;;;;;;;;;;19.64;34.96;101391.36;104672;1291;60568;-81
2024/03/20 09:54:06;;;;;;;;;;;;;;;19.60;34.64;101389.59;105077;1297;62076;-81
2024/03/20 09:56:31;;;;;;;;;;;;;;;19.52;34.54;101385.39;104980;1291;62113;-82
2024/03/20 09:58:57;;;;;;;;;;;;;;;19.48;34.63;101382.91;104719;1291;62120;-80
2024/03/20 10:01:22;;;;;;;;;;;;;;;19.48;34.91;101377.75;105043;1291;60510;-81
2024/03/20 10:03:53;;;;;;;;;;;;;;;19.53;35.39;101372.51;105170;1292;60218;-80
2024/03/20 10:06:27;;;;;;;;;;;;;;;19.47;35.50;101369.10;105431;1291;61352;-82
2024/03/20 10:08:53;;;;;;;;;;;;;;;19.51;35.69;101363.34;105196;1291;60710;-82
2024/03/20 10:11:19;;;;;;;;;;;;;;;19.55;35.76;101360.26;105062;1291;61191;-82
2024/03/20 10:13:45;;;;;;;;;;;;;;;19.53;35.64;101361.96;105188;1292;60577;-80
2024/03/20 10:16:12;;;;;;;;;;;;;;;19.26;35.37;101360.92;105172;1292;59900;-79
2024/03/20 10:18:38;;;;;;;;;;;;;;;19.19;35.73;101358.64;105065;1291;60382;-81
2024/03/20 10:21:04;;;;;;;;;;;;;;;19.32;35.87;101356.86;105251;1291;61388;-80
2024/03/20 10:23:29;;;;;;;;;;;;;;;19.45;35.92;101354.54;105039;1294;60387;-80
2024/03/20 10:25:58;;;;;;;;;;;;;;;19.60;36.04;101351.75;104923;1291;60608;-79
2024/03/20 10:28:29;;;;;;;;;;;;;;;19.71;36.11;101349.66;104733;1291;60611;-81
2024/03/20 10:30:58;;;;;;;;;;;;;;;19.75;35.75;101348.20;104650;1291;72522;-80
2024/03/20 10:33:23;;;;;;;;;;;;;;;19.65;35.46;101345.55;104867;1291;76233;-81
2024/03/20 10:35:50;;;;;;;;;;;;;;;19.66;35.85;101344.27;104607;1291;62134;-79
2024/03/20 10:38:17;;;;;;;;;;;;;;;19.70;35.99;101342.64;104824;1291;61949;-80
2024/03/20 10:40:43;;;;;;;;;;;;;;;19.74;36.19;101337.71;104787;1291;73788;-80
2024/03/20 10:43:09;;;;;;;;;;;;;;;19.78;36.22;101338.40;104806;1291;62018;-79
2024/03/20 10:45:34;;;;;;;;;;;;;;;19.81;36.21;101334.15;104972;1291;61733;-81
2024/03/20 10:48:00;;;;;;;;;;;;;;;19.83;36.29;101334.77;104515;1291;62824;-79
2024/03/20 10:50:26;;;;;;;;;;;;;;;19.84;36.15;101331.13;104686;1291;62115;-81
2024/03/20 10:52:51;;;;;;;;;;;;;;;19.86;36.06;101326.73;104659;1291;62099;-79
2024/03/20 10:55:18;;;;;;;;;;;;;;;19.88;35.97;101325.38;104654;1291;76219;-80
2024/03/20 10:57:46;;;;;;;;;;;;;;;19.78;35.59;101316.61;104390;1291;60681;-80
2024/03/20 11:00:15;;;;;;;;;;;;;;;19.71;35.58;101314.34;104332;1291;62032;-80
2024/03/20 11:02:40;;;;;;;;;;;;;;;19.72;35.54;101315.02;104999;1291;72365;-80
2024/03/20 11:05:25;;;;;;;;;;;;;;;19.66;35.28;101310.15;104868;1291;62192;-78
2024/03/20 11:07:51;;;;;;;;;;;;;;;19.45;34.86;101303.31;105040;1291;61106;-80
2024/03/20 11:10:19;;;;;;;;;;;;;;;19.21;34.87;101301.27;104900;1291;60943;-80
2024/03/20 11:12:45;;;;;;;;;;;;;;;19.14;34.93;101298.77;104862;1294;72193;-79
2024/03/20 11:15:14;;;;;;;;;;;;;;;19.16;34.90;101292.23;104979;1291;75333;-81
2024/03/20 11:17:40;;;;;;;;;;;;;;;19.23;35.16;101289.20;104775;1291;65111;-80
2024/03/20 11:20:06;;;;;;;;;;;;;;;19.30;35.10;101281.67;104881;1291;62090;-82
2024/03/20 11:22:32;;;;;;;;;;;;;;;19.32;34.79;101280.34;104763;1291;61984;-80
2024/03/20 11:24:58;;;;;;;;;;;;;;;19.30;35.00;101275.40;104933;1291;61476;-81
2024/03/20 11:27:24;;;;;;;;;;;;;;;19.35;35.09;101269.77;104719;1296;61919;-81
2024/03/20 11:29:50;;;;;;;;;;;;;;;19.42;35.13;101268.30;104952;1291;62016;-80
2024/03/20 11:32:16;;;;;;;;;;;;;;;19.48;35.02;101266.77;104698;1291;61374;-80
2024/03/20 11:34:42;;;;;;;;;;;;;;;19.53;34.87;101260.17;104846;1291;62214;-81
2024/03/20 11:37:17;;;;;;;;;;;;;;;19.59;34.94;101260.73;104740;1291;62171;-79
2024/03/20 11:39:43;;;;;;;;;;;;;;;19.65;34.95;101259.50;104526;1291;62801;-80
2024/03/20 11:42:10;;;;;;;;;;;;;;;19.69;34.66;101255.73;104683;1291;60300;-79
2024/03/20 11:44:35;;;;;;;;;;;;;;;19.70;34.65;101257.44;105087;1291;60781;-80
2024/03/20 11:47:01;;;;;;;;;;;;;;;19.70;34.40;101254.72;104933;1291;62178;-80
2024/03/20 11:49:28;;;;;;;;;;;;;;;19.71;34.43;101256.65;105863;1291;60216;-80
2024/03/20 11:51:53;;;;;;;;;;;;;;;19.71;34.35;101256.45;105864;1291;60541;-82
2024/03/20 11:54:20;;;;;;;;;;;;;;;19.72;34.47;101249.99;105990;1291;61172;-80
2024/03/20 11:56:48;;;;;;;;;;;;;;;19.73;34.45;101247.95;105859;1291;60179;-79
2024/03/20 11:59:14;;;;;;;;;;;;;;;19.74;34.51;101243.80;105824;1291;60393;-80
2024/03/20 12:01:39;;;;;;;;;;;;;;;19.75;34.57;101241.06;105821;1291;59893;-82
2024/03/20 12:04:05;;;;;;;;;;;;;;;19.78;34.73;101242.34;105785;1291;60347;-81
2024/03/20 12:06:37;;;;;;;;;;;;;;;19.70;34.51;101242.75;105853;1291;59859;-81
2024/03/20 12:09:15;;;;;;;;;;;;;;;19.61;34.33;101234.73;105906;1291;75286;-82
2024/03/20 12:11:40;;;;;;;;;;;;;;;19.48;34.18;101239.42;105813;1291;60291;-80
2024/03/20 12:14:06;;;;;;;;;;;;;;;19.49;34.39;101239.01;105859;1291;59565;-81
2024/03/20 12:16:32;;;;;;;;;;;;;;;19.53;34.16;101233.23;105689;1291;60091;-81
2024/03/20 12:18:58;;;;;;;;;;;;;;;19.52;34.35;101232.39;105710;1291;60274;-81